Time;durP1;ratioP1;P1;durP2;ratioP2;P2;SDS_P1;SDS_P2;PMS_P1;PMS_P2;Temp;Humidity;BMP_temperature;BMP_pressure;BME280_temperature;BME280_humidity;BME280_pressure;Samples;Min_cycle;Max_cycle;Signal;HPM_P1;HPM_P2
2022/10/02 00:02:49;;;;;;;2.80;0.25;;;12.40;99.90;;;;;;6296209;22;20027;-91
2022/10/02 00:11:53;;;;;;;1.85;0.45;;;12.40;99.90;;;;;;6259400;22;20039;-91
2022/10/02 00:20:57;;;;;;;1.05;0.40;;;12.40;99.90;;;;;;6265326;22;20073;-93
2022/10/02 00:24:10;;;;;;;4.15;0.85;;;12.40;99.90;;;;;;6225192;22;20031;-90
2022/10/02 02:11:19;;;;;;;4.35;0.80;;;12.20;99.90;;;;;;6264964;22;20039;-92
2022/10/02 02:14:02;;;;;;;3.67;0.50;;;12.20;99.90;;;;;;6254542;22;20016;-93
2022/10/02 02:46:10;;;;;;;5.90;0.60;;;12.20;99.90;;;;;;6282717;22;20016;-93
2022/10/02 02:57:38;;;;;;;1.88;0.60;;;12.30;99.90;;;;;;6253670;22;20028;-91
2022/10/02 03:00:06;;;;;;;4.82;0.52;;;12.30;99.90;;;;;;6077693;23;20022;-91
2022/10/02 03:14:07;;;;;;;4.30;0.45;;;12.40;99.90;;;;;;6260191;22;20303;-89
2022/10/02 03:16:33;;;;;;;3.55;0.40;;;12.40;99.90;;;;;;6226105;22;20023;-93
2022/10/02 03:19:37;;;;;;;2.08;0.40;;;12.40;99.90;;;;;;6226090;22;20014;-93
2022/10/02 03:30:34;;;;;;;;;;;;;;;;;;;;;
2022/10/02 03:33:57;;;;;;;5.18;0.70;;;12.40;99.90;;;;;;6250227;22;20063;-90
2022/10/02 03:36:47;;;;;;;2.50;0.40;;;12.40;99.90;;;;;;6220686;22;20069;-91
2022/10/02 03:39:15;;;;;;;2.20;0.50;;;12.40;99.90;;;;;;6224068;22;20098;-93
2022/10/02 03:41:44;;;;;;;2.72;0.43;;;12.30;99.90;;;;;;6225494;22;20125;-93
2022/10/02 03:44:10;;;;;;;2.58;0.50;;;12.30;99.90;;;;;;6225585;22;20012;-91
2022/10/02 03:46:42;;;;;;;3.70;0.40;;;12.30;99.90;;;;;;6225647;22;20118;-93
2022/10/02 03:49:07;;;;;;;2.13;0.40;;;12.30;99.90;;;;;;6199556;22;20254;-90
2022/10/02 03:51:33;;;;;;;2.30;0.50;;;12.30;99.90;;;;;;6225614;22;20015;-91
2022/10/02 03:53:59;;;;;;;3.20;0.40;;;12.30;99.90;;;;;;6224199;22;20012;-90
2022/10/02 03:56:47;;;;;;;1.00;0.40;;;12.30;99.90;;;;;;6224515;22;20255;-92
2022/10/02 03:59:28;;;;;;;2.83;0.50;;;12.30;99.90;;;;;;6230151;22;20571;-92
2022/10/02 04:01:57;;;;;;;2.88;0.40;;;12.30;99.90;;;;;;6221605;22;20109;-91
2022/10/02 04:05:18;;;;;;;;;;;;;;;;;;;;;
2022/10/02 04:08:05;;;;;;;2.53;0.32;;;12.30;99.90;;;;;;6269787;22;20022;-91
2022/10/02 04:14:06;;;;;;;2.55;0.40;;;12.30;99.90;;;;;;6240664;22;20016;-92
2022/10/02 04:16:46;;;;;;;2.28;0.45;;;12.30;99.90;;;;;;6225037;22;20020;-91
2022/10/02 04:19:22;;;;;;;2.45;0.52;;;12.30;99.90;;;;;;6224946;22;20082;-92
2022/10/02 04:22:24;;;;;;;;;;;;;;;;;;;;;
2022/10/02 04:25:32;;;;;;;1.92;0.30;;;12.30;99.90;;;;;;6277673;22;20019;-92
2022/10/02 04:28:01;;;;;;;2.25;0.88;;;12.30;99.90;;;;;;6240926;22;20098;-92
2022/10/02 04:30:28;;;;;;;9.77;0.80;;;12.30;99.90;;;;;;6222730;22;20453;-91
2022/10/02 04:33:22;;;;;;;2.47;0.32;;;12.30;99.90;;;;;;6223687;22;20445;-90
2022/10/02 04:36:35;;;;;;;2.35;0.60;;;12.30;99.90;;;;;;6208284;22;20016;-92
2022/10/02 04:39:35;;;;;;;2.20;0.30;;;12.30;99.90;;;;;;6225112;22;20012;-92
2022/10/02 04:42:34;;;;;;;3.42;0.68;;;12.30;99.90;;;;;;6223918;22;20019;-94
2022/10/02 04:45:26;;;;;;;3.15;0.57;;;12.30;99.90;;;;;;6225032;22;20023;-93
2022/10/02 04:48:25;;;;;;;3.70;0.40;;;12.30;99.90;;;;;;6190059;22;20047;-92
2022/10/02 04:51:28;;;;;;;3.38;0.50;;;12.30;99.90;;;;;;6222370;22;20018;-92
2022/10/02 04:54:22;;;;;;;2.38;1.30;;;12.30;99.90;;;;;;6222940;22;20040;-92
2022/10/02 04:57:15;;;;;;;1.77;0.60;;;12.30;99.90;;;;;;6223489;22;20024;-91
2022/10/02 05:37:24;;;;;;;2.42;0.50;;;12.10;99.90;;;;;;6277260;22;20061;-90
2022/10/02 05:45:45;;;;;;;1.92;0.50;;;12.00;99.90;;;;;;6260062;22;20030;-90
2022/10/02 06:11:28;;;;;;;2.10;0.38;;;11.90;99.90;;;;;;6233515;22;20047;-92
2022/10/02 06:14:13;;;;;;;5.05;0.50;;;11.90;99.90;;;;;;6226747;22;20113;-91
2022/10/02 07:42:46;;;;;;;4.53;0.80;;;12.60;99.90;;;;;;6255555;22;20023;-93
2022/10/02 08:29:40;;;;;;;1.85;0.40;;;13.40;99.90;;;;;;6308059;22;20444;-92
2022/10/02 09:54:09;;;;;;;2.10;0.40;;;14.00;99.90;;;;;;6278597;22;20107;-89
2022/10/02 09:56:59;;;;;;;6.28;0.63;;;14.20;99.90;;;;;;6226519;22;20020;-92
2022/10/02 09:59:50;;;;;;;3.53;0.60;;;14.30;99.90;;;;;;6226260;22;20019;-91
2022/10/02 10:02:33;;;;;;;2.60;0.60;;;14.40;99.90;;;;;;6226802;22;20019;-92
2022/10/02 10:05:33;;;;;;;4.07;0.75;;;14.50;99.90;;;;;;6231453;22;20022;-89
2022/10/02 10:08:54;;;;;;;3.22;0.60;;;14.70;99.90;;;;;;6253741;22;20012;-94
2022/10/02 10:14:07;;;;;;;5.82;0.75;;;14.90;99.90;;;;;;6286592;22;20019;-95
2022/10/02 12:51:29;;;;;;;5.30;0.90;;;16.30;99.90;;;;;;6285746;22;20019;-86
2022/10/02 12:59:19;;;;;;;2.65;0.63;;;16.20;99.90;;;;;;6246586;22;20020;-92
2022/10/02 13:02:28;;;;;;;5.75;0.68;;;16.20;99.90;;;;;;6171045;23;20657;-92
2022/10/02 13:05:05;;;;;;;4.88;0.68;;;16.30;99.90;;;;;;6197976;23;20099;-91
2022/10/02 13:08:18;;;;;;;;;;;;;;;;;;;;;
2022/10/02 13:11:32;;;;;;;3.55;0.65;;;16.50;99.90;;;;;;6172905;23;20024;-92
2022/10/02 13:27:48;;;;;;;4.03;0.82;;;16.50;99.90;;;;;;6279363;22;20028;-95
2022/10/02 14:33:44;;;;;;;3.00;0.40;;;15.80;99.90;;;;;;6308393;22;20027;-92
2022/10/02 14:36:17;;;;;;;4.18;0.65;;;15.90;99.90;;;;;;6282238;22;20022;-91
2022/10/02 14:47:20;;;;;;;5.10;0.70;;;15.90;99.90;;;;;;6276754;22;20024;-90
2022/10/02 14:50:23;;;;;;;1.73;0.50;;;15.80;99.90;;;;;;6251680;22;20327;-94
2022/10/02 15:42:56;;;;;;;3.47;0.60;;;15.10;99.90;;;;;;6308099;22;20062;-89
2022/10/02 15:59:21;;;;;;;;;;;;;;;;;;;;;
2022/10/02 16:15:30;;;;;;;2.17;0.40;;;15.00;99.90;;;;;;6245052;22;20024;-89
2022/10/02 16:18:24;;;;;;;3.53;0.93;;;15.00;99.90;;;;;;6197091;23;20442;-88
2022/10/02 16:21:24;;;;;;;6.35;0.47;;;14.90;99.90;;;;;;6222111;23;20020;-93
2022/10/02 16:24:12;;;;;;;2.25;0.30;;;14.90;99.90;;;;;;6195372;23;20345;-90
2022/10/02 16:45:13;;;;;;;5.43;0.40;;;14.60;99.90;;;;;;6276332;22;20026;-90
2022/10/02 16:47:52;;;;;;;3.70;0.40;;;14.60;99.90;;;;;;6250613;22;20356;-89
2022/10/02 16:50:31;;;;;;;3.67;0.65;;;14.60;99.90;;;;;;6225029;22;20341;-92
2022/10/02 16:53:19;;;;;;;2.75;0.63;;;14.60;99.90;;;;;;6251210;22;20012;-89
2022/10/02 16:56:19;;;;;;;3.38;0.93;;;14.50;99.90;;;;;;6226637;22;20319;-89
2022/10/02 16:59:25;;;;;;;3.25;0.57;;;14.50;99.90;;;;;;6113794;23;20013;-89
2022/10/02 17:01:54;;;;;;;3.42;0.43;;;14.50;99.90;;;;;;6064027;23;20056;-90
2022/10/02 17:26:09;;;;;;;8.48;3.85;;;14.10;99.90;;;;;;6275933;22;20015;-91
2022/10/02 17:29:04;;;;;;;7.13;3.17;;;14.00;99.90;;;;;;6226513;22;20026;-93
2022/10/02 17:31:49;;;;;;;3.58;1.27;;;14.00;99.90;;;;;;6243391;22;20000;-92
2022/10/02 17:35:02;;;;;;;5.45;0.85;;;13.90;99.90;;;;;;6282886;22;20019;-91
2022/10/02 17:38:25;;;;;;;;;;;;;;;;;;;;;
2022/10/02 17:58:27;;;;;;;7.25;1.95;;;13.50;99.90;;;;;;6254239;22;20042;-95
2022/10/02 18:01:25;;;;;;;4.25;0.93;;;13.50;99.90;;;;;;6227385;22;20094;-95
2022/10/02 18:04:28;;;;;;;7.05;1.10;;;13.40;99.90;;;;;;6227263;22;20102;-96
2022/10/02 18:07:15;;;;;;;1.63;0.50;;;13.40;99.90;;;;;;6227344;22;20026;-94
2022/10/02 18:10:24;;;;;;;2.03;0.70;;;13.30;99.90;;;;;;6237852;22;20016;-96
2022/10/02 18:12:59;;;;;;;3.13;0.75;;;13.20;99.90;;;;;;6267494;22;20066;-94
2022/10/02 18:15:56;;;;;;;2.80;0.60;;;13.20;99.90;;;;;;6232734;22;20016;-96
2022/10/02 18:18:38;;;;;;;5.18;1.20;;;13.20;99.90;;;;;;6228128;22;20019;-95
2022/10/02 18:21:39;;;;;;;2.75;0.73;;;13.10;99.90;;;;;;6232563;22;20098;-94
2022/10/02 18:24:22;;;;;;;4.97;0.70;;;13.10;99.90;;;;;;6225140;22;20045;-96
2022/10/02 18:27:14;;;;;;;2.55;0.55;;;13.00;99.90;;;;;;6257489;22;20081;-96
2022/10/02 18:30:02;;;;;;;2.47;0.60;;;13.00;99.90;;;;;;6257118;22;20041;-96
2022/10/02 18:32:40;;;;;;;;;;;13.00;99.90;;;;;;6258016;22;20030;-96
2022/10/02 18:35:46;;;;;;;4.95;1.90;;;12.90;99.90;;;;;;6259938;22;19942;-96
2022/10/02 18:38:24;;;;;;;4.65;0.80;;;12.90;99.90;;;;;;6258025;22;20081;-96
2022/10/02 18:40:59;;;;;;;5.75;0.95;;;12.90;99.90;;;;;;6258105;22;20019;-96
2022/10/02 18:43:54;;;;;;;4.78;1.00;;;12.80;99.90;;;;;;6259489;22;20131;-96
2022/10/02 18:52:15;;;;;;;1.80;0.30;;;12.80;99.90;;;;;;6257893;22;20016;-96
2022/10/02 18:55:03;;;;;;;3.40;0.60;;;12.80;99.90;;;;;;6228168;22;20027;-95
2022/10/02 18:57:45;;;;;;;2.55;0.80;;;12.80;99.90;;;;;;6252797;22;20012;-93
2022/10/02 19:00:36;;;;;;;2.45;0.40;;;12.80;99.90;;;;;;6228614;22;20039;-90
2022/10/02 19:03:04;;;;;;;3.15;0.47;;;12.70;99.90;;;;;;6227912;22;20023;-95
2022/10/02 19:06:03;;;;;;;3.38;0.90;;;12.70;99.90;;;;;;6228801;22;20099;-96
2022/10/02 19:09:05;;;;;;;6.05;2.17;;;12.70;99.90;;;;;;6211313;22;20345;-91
2022/10/02 19:11:34;;;;;;;20.50;5.90;;;12.60;99.90;;;;;;6229148;22;20019;-94
2022/10/02 19:14:22;;;;;;;11.90;4.22;;;12.60;99.90;;;;;;6230186;22;20345;-95
2022/10/02 19:16:56;;;;;;;;;;;12.50;99.90;;;;;;6233130;22;20442;-95
2022/10/02 19:19:25;;;;;;;8.27;2.33;;;12.50;99.90;;;;;;6228096;22;19915;-96
2022/10/02 19:22:17;;;;;;;4.68;1.45;;;12.50;99.90;;;;;;6232002;22;20026;-96
2022/10/02 19:24:47;;;;;;;2.83;0.90;;;12.50;99.90;;;;;;6253701;22;20018;-96
2022/10/02 19:27:22;;;;;;;4.68;1.10;;;12.50;99.90;;;;;;6226919;22;20020;-90
2022/10/02 20:29:50;;;;;;;3.72;0.68;;;12.10;99.90;;;;;;6278559;22;20024;-93
2022/10/02 20:32:40;;;;;;;5.07;0.80;;;12.10;99.90;;;;;;6228132;22;20106;-96
2022/10/02 20:35:20;;;;;;;4.07;0.95;;;12.10;99.90;;;;;;6255979;22;20326;-96
2022/10/02 20:37:50;;;;;;;2.00;0.40;;;12.00;99.90;;;;;;6255742;22;20067;-95
2022/10/02 20:40:30;;;;;;;2.05;0.40;;;12.00;99.90;;;;;;6254716;22;20026;-93
2022/10/02 20:43:10;;;;;;;3.53;0.55;;;12.00;99.90;;;;;;6254125;22;20015;-95
2022/10/02 20:45:48;;;;;;;2.95;0.50;;;12.00;99.90;;;;;;6255617;22;20011;-96
2022/10/02 20:48:55;;;;;;;2.15;0.70;;;12.00;99.90;;;;;;6255879;22;20070;-95
2022/10/02 20:52:14;;;;;;;;;;;;;;;;;;;;;
2022/10/02 20:55:27;;;;;;;;;;;;;;;;;;;;;
2022/10/02 20:58:03;;;;;;;;;;;12.00;99.90;;;;;;6282324;22;20054;-94
2022/10/02 21:00:57;;;;;;;5.80;0.70;;;12.00;99.90;;;;;;6256118;22;19915;-95
2022/10/02 21:03:35;;;;;;;6.45;0.93;;;12.00;99.90;;;;;;6256118;22;20131;-93
2022/10/02 21:06:13;;;;;;;2.75;0.43;;;12.00;99.90;;;;;;6255838;22;20093;-96
2022/10/02 21:09:12;;;;;;;3.85;0.68;;;12.00;99.90;;;;;;6255946;22;20429;-94
2022/10/02 21:12:03;;;;;;;2.13;0.50;;;12.00;99.90;;;;;;6256292;22;20595;-95
2022/10/02 21:17:58;;;;;;;3.17;0.43;;;12.00;99.90;;;;;;6265195;22;20021;-92
2022/10/02 21:20:37;;;;;;;11.13;1.90;;;11.90;99.90;;;;;;6255491;22;20015;-96
2022/10/02 21:23:46;;;;;;;2.20;0.63;;;11.90;99.90;;;;;;6255462;22;20026;-90
2022/10/02 21:35:33;;;;;;;4.00;0.40;;;11.80;99.90;;;;;;6277280;22;20024;-92
2022/10/02 21:38:31;;;;;;;2.25;0.55;;;11.90;99.90;;;;;;6105189;23;20093;-95
2022/10/02 21:41:46;;;;;;;4.05;0.60;;;11.90;99.90;;;;;;6250412;22;20012;-92
2022/10/02 21:44:54;;;;;;;3.95;0.50;;;11.90;99.90;;;;;;6227044;22;20348;-91
2022/10/02 21:48:03;;;;;;;5.15;0.52;;;11.90;99.90;;;;;;6228193;22;20027;-96
2022/10/02 21:50:55;;;;;;;4.80;0.60;;;11.90;99.90;;;;;;6226715;22;20019;-95
2022/10/02 21:53:58;;;;;;;4.57;0.50;;;11.90;99.90;;;;;;6226679;22;20055;-95
2022/10/02 21:57:16;;;;;;;3.65;0.60;;;11.90;99.90;;;;;;6227210;22;20019;-96
2022/10/02 22:00:13;;;;;;;1.95;0.60;;;11.80;99.90;;;;;;6225689;22;20398;-94
2022/10/02 22:03:15;;;;;;;2.80;0.60;;;11.90;99.90;;;;;;6224958;22;20016;-94
2022/10/02 22:14:47;;;;;;;2.15;0.50;;;11.80;99.90;;;;;;6277223;22;20027;-92
2022/10/02 22:22:56;;;;;;;;;;;;;;;;;;;;;
2022/10/02 22:25:50;;;;;;;;;;;;;;;;;;;;;
2022/10/02 23:22:34;;;;;;;1.20;0.35;;;11.60;99.90;;;;;;6274936;22;20026;-93
2022/10/02 23:25:28;;;;;;;2.60;0.38;;;11.50;99.90;;;;;;6230008;22;20449;-93
2022/10/02 23:28:15;;;;;;;2.05;0.35;;;11.50;99.90;;;;;;6230874;22;20047;-94
2022/10/02 23:30:59;;;;;;;2.13;0.50;;;11.50;99.90;;;;;;6231206;22;20023;-93
2022/10/02 23:33:42;;;;;;;3.22;0.50;;;11.50;99.90;;;;;;6232322;22;20340;-94
2022/10/02 23:36:22;;;;;;;2.75;0.45;;;11.50;99.90;;;;;;6231173;22;20011;-95
2022/10/02 23:38:54;;;;;;;2.53;0.65;;;11.50;99.90;;;;;;6231478;22;20020;-95
2022/10/02 23:44:19;;;;;;;3.00;0.45;;;11.50;99.90;;;;;;6255516;22;20016;-96
2022/10/02 23:46:48;;;;;;;2.75;0.45;;;11.60;99.90;;;;;;6230878;22;20016;-91
2022/10/02 23:49:24;;;;;;;4.72;0.60;;;11.60;99.90;;;;;;6229574;22;20011;-96
2022/10/02 23:52:09;;;;;;;3.00;0.50;;;11.60;99.90;;;;;;6227364;22;20011;-94
2022/10/02 23:54:59;;;;;;;4.30;1.45;;;11.60;99.90;;;;;;6252028;22;20099;-94
2022/10/02 23:57:57;;;;;;;2.15;0.52;;;11.70;99.90;;;;;;6227746;22;20020;-96
